sensor_id;sensor_type;location;lat;lon;timestamp;pressure;altitude;pressure_sealevel;temperature;humidity
56414;BME280;42318;48.452;19.526;2022-11-27T00:02:17;99449.47;;;19.94;56.93
56414;BME280;42318;48.452;19.526;2022-11-27T00:09:48;99443.22;;;19.94;56.93
56414;BME280;42318;48.452;19.526;2022-11-27T00:17:19;99444.91;;;19.95;57.04
56414;BME280;42318;48.452;19.526;2022-11-27T00:24:50;99451.38;;;19.94;57.31
56414;BME280;42318;48.452;19.526;2022-11-27T00:32:20;99454.09;;;19.94;57.16
56414;BME280;42318;48.452;19.526;2022-11-27T00:39:51;99449.72;;;19.93;56.77
56414;BME280;42318;48.452;19.526;2022-11-27T00:47:22;99432.56;;;19.92;56.94
56414;BME280;42318;48.452;19.526;2022-11-27T00:54:53;99436.94;;;19.93;57.00
56414;BME280;42318;48.452;19.526;2022-11-27T01:02:24;99437.78;;;19.94;56.96
56414;BME280;42318;48.452;19.526;2022-11-27T01:09:55;99441.56;;;19.93;56.77
56414;BME280;42318;48.452;19.526;2022-11-27T01:17:25;99430.06;;;19.91;56.90
56414;BME280;42318;48.452;19.526;2022-11-27T01:24:56;99435.28;;;19.92;56.84
56414;BME280;42318;48.452;19.526;2022-11-27T01:32:27;99432.81;;;19.91;56.97
56414;BME280;42318;48.452;19.526;2022-11-27T01:39:57;99438.84;;;19.93;57.06
56414;BME280;42318;48.452;19.526;2022-11-27T01:47:33;99439.06;;;19.91;57.27
56414;BME280;42318;48.452;19.526;2022-11-27T01:55:34;99442.03;;;19.90;56.93
56414;BME280;42318;48.452;19.526;2022-11-27T02:03:06;99436.81;;;19.88;56.84
56414;BME280;42318;48.452;19.526;2022-11-27T02:10:53;99439.28;;;19.90;57.02
56414;BME280;42318;48.452;19.526;2022-11-27T02:18:40;99451.00;;;19.90;56.79
56414;BME280;42318;48.452;19.526;2022-11-27T02:26:20;99440.38;;;19.89;57.04
56414;BME280;42318;48.452;19.526;2022-11-27T02:33:57;99429.47;;;19.89;56.84
56414;BME280;42318;48.452;19.526;2022-11-27T02:41:38;99447.47;;;19.90;57.04
56414;BME280;42318;48.452;19.526;2022-11-27T02:49:15;99455.84;;;19.88;56.77
56414;BME280;42318;48.452;19.526;2022-11-27T02:56:48;99453.13;;;19.88;56.84
56414;BME280;42318;48.452;19.526;2022-11-27T03:04:25;99459.63;;;19.87;56.70
56414;BME280;42318;48.452;19.526;2022-11-27T03:11:57;99469.69;;;19.87;56.67
56414;BME280;42318;48.452;19.526;2022-11-27T03:19:42;99477.00;;;19.86;57.15
56414;BME280;42318;48.452;19.526;2022-11-27T03:27:18;99474.28;;;19.86;56.71
56414;BME280;42318;48.452;19.526;2022-11-27T03:34:51;99466.38;;;19.85;57.04
56414;BME280;42318;48.452;19.526;2022-11-27T03:42:26;99478.91;;;19.86;56.93
56414;BME280;42318;48.452;19.526;2022-11-27T03:57:44;99479.97;;;19.85;56.75
56414;BME280;42318;48.452;19.526;2022-11-27T04:05:19;99479.97;;;19.85;56.34
56414;BME280;42318;48.452;19.526;2022-11-27T04:12:50;99468.25;;;19.84;56.95
56414;BME280;42318;48.452;19.526;2022-11-27T04:20:21;99468.25;;;19.84;56.87
56414;BME280;42318;48.452;19.526;2022-11-27T04:27:52;99466.38;;;19.85;56.81
56414;BME280;42318;48.452;19.526;2022-11-27T04:35:23;99475.59;;;19.84;56.76
56414;BME280;42318;48.452;19.526;2022-11-27T04:42:53;99472.03;;;19.83;56.75
56414;BME280;42318;48.452;19.526;2022-11-27T04:50:24;99475.81;;;19.82;56.71
56414;BME280;42318;48.452;19.526;2022-11-27T04:57:55;99471.22;;;19.83;56.89
56414;BME280;42318;48.452;19.526;2022-11-27T05:05:26;99461.16;;;19.83;56.29
56414;BME280;42318;48.452;19.526;2022-11-27T05:12:56;99460.31;;;19.83;56.66
56414;BME280;42318;48.452;19.526;2022-11-27T05:20:27;99464.94;;;19.82;56.17
56414;BME280;42318;48.452;19.526;2022-11-27T05:27:58;99464.94;;;19.82;56.52
56414;BME280;42318;48.452;19.526;2022-11-27T05:35:29;99481.50;;;19.81;56.65
56414;BME280;42318;48.452;19.526;2022-11-27T05:42:59;99484.22;;;19.81;56.44
56414;BME280;42318;48.452;19.526;2022-11-27T05:50:30;99488.59;;;19.82;56.70
56414;BME280;42318;48.452;19.526;2022-11-27T05:58:01;99490.47;;;19.81;56.35
56414;BME280;42318;48.452;19.526;2022-11-27T06:05:32;99483.38;;;19.80;56.34
56414;BME280;42318;48.452;19.526;2022-11-27T06:13:03;99477.09;;;19.80;56.15
56414;BME280;42318;48.452;19.526;2022-11-27T06:20:33;99482.31;;;19.81;56.63
56414;BME280;42318;48.452;19.526;2022-11-27T06:28:04;99480.66;;;19.80;56.62
56414;BME280;42318;48.452;19.526;2022-11-27T06:35:35;99492.38;;;19.81;56.59
56414;BME280;42318;48.452;19.526;2022-11-27T06:43:05;99495.09;;;19.81;56.57
56414;BME280;42318;48.452;19.526;2022-11-27T06:50:36;99494.25;;;19.80;56.61
56414;BME280;42318;48.452;19.526;2022-11-27T06:58:07;99493.44;;;19.80;56.73
56414;BME280;42318;48.452;19.526;2022-11-27T07:05:38;99488.00;;;19.80;56.27
56414;BME280;42318;48.452;19.526;2022-11-27T07:13:08;99490.94;;;19.78;56.40
56414;BME280;42318;48.452;19.526;2022-11-27T07:20:39;99490.09;;;19.77;56.30
56414;BME280;42318;48.452;19.526;2022-11-27T07:28:10;99491.16;;;19.76;56.53
56414;BME280;42318;48.452;19.526;2022-11-27T07:35:41;99496.59;;;19.76;56.57
56414;BME280;42318;48.452;19.526;2022-11-27T07:43:11;99493.88;;;19.76;56.39
56414;BME280;42318;48.452;19.526;2022-11-27T07:50:42;99493.88;;;19.76;56.25
56414;BME280;42318;48.452;19.526;2022-11-27T07:58:13;99498.50;;;19.76;56.27
56414;BME280;42318;48.452;19.526;2022-11-27T08:05:44;99512.69;;;19.78;56.16
56414;BME280;42318;48.452;19.526;2022-11-27T08:13:14;99514.81;;;19.76;56.10
56414;BME280;42318;48.452;19.526;2022-11-27T08:20:45;99516.25;;;19.79;56.22
56414;BME280;42318;48.452;19.526;2022-11-27T08:28:16;99517.31;;;19.77;56.52
56414;BME280;42318;48.452;19.526;2022-11-27T08:35:47;99516.69;;;19.75;56.10
56414;BME280;42318;48.452;19.526;2022-11-27T08:43:18;99527.13;;;19.79;56.13
56414;BME280;42318;48.452;19.526;2022-11-27T08:50:49;99526.50;;;19.76;56.24
56414;BME280;42318;48.452;19.526;2022-11-27T08:58:21;99532.56;;;19.79;56.38
56414;BME280;42318;48.452;19.526;2022-11-27T09:05:51;99536.34;;;19.77;56.27
56414;BME280;42318;48.452;19.526;2022-11-27T09:13:22;99540.34;;;19.75;56.38
56414;BME280;42318;48.452;19.526;2022-11-27T09:20:58;99528.41;;;19.76;56.36
56414;BME280;42318;48.452;19.526;2022-11-27T09:28:31;99526.50;;;19.76;56.38
56414;BME280;42318;48.452;19.526;2022-11-27T09:36:10;99526.75;;;19.75;56.18
56414;BME280;42318;48.452;19.526;2022-11-27T09:43:52;99520.47;;;19.74;56.13
56414;BME280;42318;48.452;19.526;2022-11-27T09:51:46;99523.81;;;19.76;56.24
56414;BME280;42318;48.452;19.526;2022-11-27T09:59:22;99521.06;;;19.76;56.17
56414;BME280;42318;48.452;19.526;2022-11-27T10:07:22;99503.94;;;19.76;56.01
56414;BME280;42318;48.452;19.526;2022-11-27T10:30:20;99498.72;;;19.74;56.19
56414;BME280;42318;48.452;19.526;2022-11-27T10:46:15;99500.63;;;19.74;56.30
56414;BME280;42318;48.452;19.526;2022-11-27T10:53:51;99492.47;;;19.74;56.28
56414;BME280;42318;48.452;19.526;2022-11-27T11:01:25;99474.34;;;19.68;55.99
56414;BME280;42318;48.452;19.526;2022-11-27T11:09:02;99482.63;;;19.73;56.24
56414;BME280;42318;48.452;19.526;2022-11-27T11:16:41;99478.03;;;19.73;56.20
56414;BME280;42318;48.452;19.526;2022-11-27T11:24:33;99461.94;;;19.72;56.17
56414;BME280;42318;48.452;19.526;2022-11-27T11:32:13;99458.16;;;19.73;56.21
56414;BME280;42318;48.452;19.526;2022-11-27T11:39:46;99450.25;;;19.71;55.96
56414;BME280;42318;48.452;19.526;2022-11-27T11:47:22;99444.81;;;19.71;56.43
56414;BME280;42318;48.452;19.526;2022-11-27T11:55:05;99431.66;;;19.68;56.13
56414;BME280;42318;48.452;19.526;2022-11-27T12:10:54;99427.28;;;19.67;56.24
56414;BME280;42318;48.452;19.526;2022-11-27T12:34:35;99409.91;;;19.68;55.96
56414;BME280;42318;48.452;19.526;2022-11-27T12:50:02;99390.06;;;19.68;56.35
56414;BME280;42318;48.452;19.526;2022-11-27T12:57:42;99397.38;;;19.67;55.96
56414;BME280;42318;48.452;19.526;2022-11-27T13:05:27;99399.28;;;19.67;55.78
56414;BME280;42318;48.452;19.526;2022-11-27T13:13:04;99384.03;;;19.66;55.86
56414;BME280;42318;48.452;19.526;2022-11-27T13:20:38;99390.28;;;19.66;55.91
56414;BME280;42318;48.452;19.526;2022-11-27T13:28:21;99388.63;;;19.65;55.89
56414;BME280;42318;48.452;19.526;2022-11-27T13:35:53;99390.28;;;19.66;55.90
56414;BME280;42318;48.452;19.526;2022-11-27T13:43:34;99385.91;;;19.65;55.89
56414;BME280;42318;48.452;19.526;2022-11-27T13:51:09;99378.59;;;19.66;55.85
56414;BME280;42318;48.452;19.526;2022-11-27T13:58:41;99376.69;;;19.66;55.76
56414;BME280;42318;48.452;19.526;2022-11-27T14:06:27;99368.53;;;19.66;55.95
56414;BME280;42318;48.452;19.526;2022-11-27T14:14:01;99373.16;;;19.66;55.97
56414;BME280;42318;48.452;19.526;2022-11-27T14:29:11;99380.25;;;19.67;55.64
56414;BME280;42318;48.452;19.526;2022-11-27T14:36:42;99379.41;;;19.66;55.89
56414;BME280;42318;48.452;19.526;2022-11-27T14:44:14;99384.03;;;19.66;55.81
56414;BME280;42318;48.452;19.526;2022-11-27T14:51:45;99393.00;;;19.66;55.67
56414;BME280;42318;48.452;19.526;2022-11-27T14:59:18;99378.81;;;19.64;55.83
56414;BME280;42318;48.452;19.526;2022-11-27T15:06:50;99374.44;;;19.63;55.84
56414;BME280;42318;48.452;19.526;2022-11-27T15:14:23;99378.22;;;19.62;55.93
56414;BME280;42318;48.452;19.526;2022-11-27T15:21:55;99375.28;;;19.64;55.85
56414;BME280;42318;48.452;19.526;2022-11-27T15:29:36;99378.81;;;19.64;55.66
56414;BME280;42318;48.452;19.526;2022-11-27T15:37:29;99376.94;;;19.65;55.85
56414;BME280;42318;48.452;19.526;2022-11-27T15:45:00;99372.78;;;19.62;55.73
56414;BME280;42318;48.452;19.526;2022-11-27T15:52:31;99375.75;;;19.61;55.74
56414;BME280;42318;48.452;19.526;2022-11-27T16:00:03;99371.13;;;19.61;55.83
56414;BME280;42318;48.452;19.526;2022-11-27T16:07:34;99375.97;;;19.59;55.89
56414;BME280;42318;48.452;19.526;2022-11-27T16:15:06;99368.41;;;19.61;55.75
56414;BME280;42318;48.452;19.526;2022-11-27T16:22:37;99360.50;;;19.60;55.91
56414;BME280;42318;48.452;19.526;2022-11-27T16:30:08;99363.22;;;19.60;55.86
56414;BME280;42318;48.452;19.526;2022-11-27T16:37:40;99360.50;;;19.60;55.75
56414;BME280;42318;48.452;19.526;2022-11-27T16:45:11;99348.78;;;19.59;55.70
56414;BME280;42318;48.452;19.526;2022-11-27T16:52:42;99344.41;;;19.58;55.43
56414;BME280;42318;48.452;19.526;2022-11-27T17:00:13;99351.50;;;19.59;55.85
56414;BME280;42318;48.452;19.526;2022-11-27T17:07:44;99351.50;;;19.59;55.63
56414;BME280;42318;48.452;19.526;2022-11-27T17:15:15;99353.16;;;19.60;55.52
56414;BME280;42318;48.452;19.526;2022-11-27T17:22:46;99342.28;;;19.60;55.58
56414;BME280;42318;48.452;19.526;2022-11-27T17:30:18;99330.59;;;19.60;55.92
56414;BME280;42318;48.452;19.526;2022-11-27T17:37:49;99332.47;;;19.59;55.73
56414;BME280;42318;48.452;19.526;2022-11-27T17:45:20;99331.88;;;19.57;55.57
56414;BME280;42318;48.452;19.526;2022-11-27T17:52:51;99339.81;;;19.59;55.68
56414;BME280;42318;48.452;19.526;2022-11-27T18:00:22;99321.00;;;19.57;55.46
56414;BME280;42318;48.452;19.526;2022-11-27T18:07:53;99306.34;;;19.58;55.58
56414;BME280;42318;48.452;19.526;2022-11-27T18:15:24;99296.53;;;19.57;55.78
56414;BME280;42318;48.452;19.526;2022-11-27T18:22:55;99306.34;;;19.58;55.75
56414;BME280;42318;48.452;19.526;2022-11-27T18:30:26;99297.38;;;19.58;55.74
56414;BME280;42318;48.452;19.526;2022-11-27T18:37:56;99286.50;;;19.58;55.41
56414;BME280;42318;48.452;19.526;2022-11-27T18:45:27;99282.94;;;19.57;55.48
56414;BME280;42318;48.452;19.526;2022-11-27T18:52:58;99284.59;;;19.58;55.32
56414;BME280;42318;48.452;19.526;2022-11-27T19:00:29;99284.59;;;19.58;55.53
56414;BME280;42318;48.452;19.526;2022-11-27T19:08:00;99275.63;;;19.58;55.41
56414;BME280;42318;48.452;19.526;2022-11-27T19:15:33;99270.19;;;19.58;55.73
56414;BME280;42318;48.452;19.526;2022-11-27T19:23:04;99275.84;;;19.56;55.57
56414;BME280;42318;48.452;19.526;2022-11-27T19:30:38;99288.38;;;19.57;55.46
56414;BME280;42318;48.452;19.526;2022-11-27T19:38:09;99289.44;;;19.56;55.38
56414;BME280;42318;48.452;19.526;2022-11-27T19:45:39;99295.13;;;19.55;55.40
56414;BME280;42318;48.452;19.526;2022-11-27T19:53:10;99293.81;;;19.57;55.24
56414;BME280;42318;48.452;19.526;2022-11-27T20:00:41;99288.63;;;19.56;55.68
56414;BME280;42318;48.452;19.526;2022-11-27T20:08:12;99280.47;;;19.56;55.54
56414;BME280;42318;48.452;19.526;2022-11-27T20:15:42;99287.78;;;19.55;55.59
56414;BME280;42318;48.452;19.526;2022-11-27T20:23:13;99279.63;;;19.55;55.56
56414;BME280;42318;48.452;19.526;2022-11-27T20:30:44;99273.38;;;19.55;55.28
56414;BME280;42318;48.452;19.526;2022-11-27T20:38:15;99269.00;;;19.54;55.33
56414;BME280;42318;48.452;19.526;2022-11-27T20:45:50;99262.50;;;19.55;55.47
56414;BME280;42318;48.452;19.526;2022-11-27T20:53:21;99260.00;;;19.53;55.58
56414;BME280;42318;48.452;19.526;2022-11-27T21:00:52;99250.78;;;19.54;55.32
56414;BME280;42318;48.452;19.526;2022-11-27T21:08:23;99243.72;;;19.53;55.48
56414;BME280;42318;48.452;19.526;2022-11-27T21:15:53;99239.94;;;19.54;55.69
56414;BME280;42318;48.452;19.526;2022-11-27T21:23:24;99256.22;;;19.54;55.52
56414;BME280;42318;48.452;19.526;2022-11-27T21:31:03;99249.97;;;19.54;55.31
56414;BME280;42318;48.452;19.526;2022-11-27T21:38:34;99249.75;;;19.55;55.38
56414;BME280;42318;48.452;19.526;2022-11-27T21:46:10;99251.63;;;19.55;55.37
56414;BME280;42318;48.452;19.526;2022-11-27T21:53:44;99235.09;;;19.56;55.42
56414;BME280;42318;48.452;19.526;2022-11-27T22:01:18;99231.31;;;19.57;55.32
56414;BME280;42318;48.452;19.526;2022-11-27T22:08:50;99220.28;;;19.52;55.28
56414;BME280;42318;48.452;19.526;2022-11-27T22:16:23;99223.38;;;19.56;55.24
56414;BME280;42318;48.452;19.526;2022-11-27T22:23:55;99223.38;;;19.56;55.46
56414;BME280;42318;48.452;19.526;2022-11-27T22:31:28;99226.09;;;19.56;55.40
56414;BME280;42318;48.452;19.526;2022-11-27T22:39:02;99226.94;;;19.56;55.14
56414;BME280;42318;48.452;19.526;2022-11-27T22:46:35;99218.78;;;19.56;55.28
56414;BME280;42318;48.452;19.526;2022-11-27T22:54:07;99220.91;;;19.54;55.29
56414;BME280;42318;48.452;19.526;2022-11-27T23:01:39;99211.91;;;19.54;55.12
56414;BME280;42318;48.452;19.526;2022-11-27T23:09:10;99211.91;;;19.54;55.43
56414;BME280;42318;48.452;19.526;2022-11-27T23:16:41;99204.34;;;19.56;55.39
56414;BME280;42318;48.452;19.526;2022-11-27T23:24:12;99185.31;;;19.56;54.96
56414;BME280;42318;48.452;19.526;2022-11-27T23:31:45;99176.34;;;19.55;55.08
56414;BME280;42318;48.452;19.526;2022-11-27T23:39:16;99170.91;;;19.55;55.41
56414;BME280;42318;48.452;19.526;2022-11-27T23:46:47;99156.50;;;19.55;55.36
56414;BME280;42318;48.452;19.526;2022-11-27T23:54:17;99160.84;;;19.56;55.28
